UKLU

Uzhhorod International Airport

Uzhhorod, Ukraine
TAF UKLU 181100Z 1812/1821 VRB01MPS 9999 NSC
Issued Valid From Valid To
Oct-18 @ 11:00 UTC
(an hour ago)
Oct-18 @ 12:00 UTC
(27 minutes ago)
Oct-18 @ 21:00 UTC
(in 9 hours)
Oct-18 @ 12:00 to Oct-18 @ 21:00
TAF UKLU 181100Z 1812/1821 VRB01MPS 9999 NSC
Wind Visibility Clouds
Variable at 2 knots 10,000+ meters
  • No significant clouds
TAF UKLU 181100Z 1812/1821 VRB01MPS 9999 NSC
Issued Oct-18 @ 11:00 UTC
(an hour ago)
Valid From Oct-18 @ 12:00 UTC
(27 minutes ago)
Valid To Oct-18 @ 21:00 UTC
(in 9 hours)
Oct-18 @ 12:00 - Oct-18 @ 21:00
Wind Visibility
Variable at 2 knots 10,000+ meters
Clouds
  • No significant clouds